Map

Track Data

SID SEASON NUMBER BASIN SUBBASIN NAME ISO_TIME NATURE LAT LON WMO_WIND WMO_PRES WMO_AGENCY TRACK_TYPE DIST2LAND LANDFALL IFLAG USA_AGENCY USA_ATCF_ID USA_LAT USA_LON USA_RECORD USA_STATUS USA_WIND USA_PRES USA_SSHS USA_R34_NE USA_R34_SE USA_R34_SW USA_R34_NW USA_R50_NE USA_R50_SE USA_R50_SW USA_R50_NW USA_R64_NE USA_R64_SE USA_R64_SW USA_R64_NW USA_POCI USA_ROCI USA_RMW USA_EYE TOKYO_LAT TOKYO_LON TOKYO_GRADE TOKYO_WIND TOKYO_PRES TOKYO_R50_DIR TOKYO_R50_LONG TOKYO_R50_SHORT TOKYO_R30_DIR TOKYO_R30_LONG TOKYO_R30_SHORT TOKYO_LAND CMA_LAT CMA_LON CMA_CAT CMA_WIND CMA_PRES HKO_LAT HKO_LON HKO_CAT HKO_WIND HKO_PRES NEWDELHI_LAT NEWDELHI_LON NEWDELHI_GRADE NEWDELHI_WIND NEWDELHI_PRES NEWDELHI_CI NEWDELHI_DP NEWDELHI_POCI REUNION_LAT REUNION_LON REUNION_TYPE REUNION_WIND REUNION_PRES REUNION_TNUM REUNION_CI REUNION_RMW REUNION_R34_NE REUNION_R34_SE REUNION_R34_SW REUNION_R34_NW REUNION_R50_NE REUNION_R50_SE REUNION_R50_SW REUNION_R50_NW REUNION_R64_NE REUNION_R64_SE REUNION_R64_SW REUNION_R64_NW BOM_LAT BOM_LON BOM_TYPE BOM_WIND BOM_PRES BOM_TNUM BOM_CI BOM_RMW BOM_R34_NE BOM_R34_SE BOM_R34_SW BOM_R34_NW BOM_R50_NE BOM_R50_SE BOM_R50_SW BOM_R50_NW BOM_R64_NE BOM_R64_SE BOM_R64_SW BOM_R64_NW BOM_ROCI BOM_POCI BOM_EYE BOM_POS_METHOD BOM_PRES_METHOD NADI_LAT NADI_LON NADI_CAT NADI_WIND NADI_PRES WELLINGTON_LAT WELLINGTON_LON WELLINGTON_WIND WELLINGTON_PRES DS824_LAT DS824_LON DS824_STAGE DS824_WIND DS824_PRES TD9636_LAT TD9636_LON TD9636_STAGE TD9636_WIND TD9636_PRES TD9635_LAT TD9635_LON TD9635_WIND TD9635_PRES TD9635_ROCI NEUMANN_LAT NEUMANN_LON NEUMANN_CLASS NEUMANN_WIND NEUMANN_PRES MLC_LAT MLC_LON MLC_CLASS MLC_WIND MLC_PRES USA_GUST BOM_GUST BOM_GUST_PER REUNION_GUST REUNION_GUST_PER USA_SEAHGT USA_SEARAD_NE USA_SEARAD_SE USA_SEARAD_SW USA_SEARAD_NW STORM_SPEED STORM_DIR
1996187N10326 1996 48 NA NA BERTHA 1996-07-05 00:00:00 TS 9.80000 -34.0000 30 1009 hurdat_atl main 1561 1529 O_____________ hurdat_atl AL021996 9.80000 -34.0000 TD 30 1009 -1 22 279
1996187N10326 1996 48 NA NA BERTHA 1996-07-05 03:00:00 TS 9.96526 -35.0977 main 1536 1516 P_____________ AL021996 9.96526 -35.0977 TD 30 1008 -1 23 280
1996187N10326 1996 48 NA NA BERTHA 1996-07-05 06:00:00 TS 10.2000 -36.3000 30 1008 hurdat_atl main 1518 1512 O_____________ hurdat_atl AL021996 10.2000 -36.3000 TD 30 1008 -1 26 283
1996187N10326 1996 48 NA NA BERTHA 1996-07-05 09:00:00 TS 10.5553 -37.6574 main 1530 1525 P_____________ AL021996 10.5553 -37.6574 TD 32 1007 -1 28 287
1996187N10326 1996 48 NA NA BERTHA 1996-07-05 12:00:00 TS 11.0000 -39.0000 35 1007 hurdat_atl main 1545 1477 O_____________ hurdat_atl AL021996 11.0000 -39.0000 TS 35 1007 0 26 292
1996187N10326 1996 48 NA NA BERTHA 1996-07-05 15:00:00 TS 11.5062 -40.1003 main 1474 1409 P_____________ AL021996 11.5062 -40.1003 TS 35 1006 0 24 295
1996187N10326 1996 48 NA NA BERTHA 1996-07-05 18:00:00 TS 12.0000 -41.2000 35 1006 hurdat_atl main 1407 1334 O_____________ hurdat_atl AL021996 12.0000 -41.2000 TS 35 1006 0 25 291
1996187N10326 1996 48 NA NA BERTHA 1996-07-05 21:00:00 TS 12.3948 -42.5127 main 1326 1251 P_____________ AL021996 12.3948 -42.5127 TS 35 1005 0 27 285
1996187N10326 1996 48 NA NA BERTHA 1996-07-06 00:00:00 TS 12.7000 -43.9000 35 1005 hurdat_atl main 1244 1173 O_____________ hurdat_atl AL021996 12.7000 -43.9000 TS 35 1005 0 28 281
1996187N10326 1996 48 NA NA BERTHA 1996-07-06 03:00:00 TS 12.9074 -45.2956 main 1167 1109 P_____________ AL021996 12.9074 -45.2956 TS 35 1004 0 27 279
1996187N10326 1996 48 NA NA BERTHA 1996-07-06 06:00:00 TS 13.1000 -46.6000 35 1004 hurdat_atl main 1103 1066 O_____________ hurdat_atl AL021996 13.1000 -46.6000 TS 35 1004 0 24 282
1996187N10326 1996 48 NA NA BERTHA 1996-07-06 09:00:00 TS 13.3913 -47.6801 main 1064 1042 P_____________ AL021996 13.3913 -47.6801 TS 37 1003 0 21 286
1996187N10326 1996 48 NA NA BERTHA 1996-07-06 12:00:00 TS 13.7000 -48.7000 40 1002 hurdat_atl main 1042 1017 O_____________ hurdat_atl AL021996 13.7000 -48.7000 TS 40 1002 0 22 285
1996187N10326 1996 48 NA NA BERTHA 1996-07-06 15:00:00 TS 13.9426 -49.8654 main 1012 991 P_____________ AL021996 13.9426 -49.8654 TS 42 1001 0 23 283
1996187N10326 1996 48 NA NA BERTHA 1996-07-06 18:00:00 TS 14.2000 -51.0000 45 1000 hurdat_atl main 993 986 O_____________ hurdat_atl AL021996 14.2000 -51.0000 TS 45 1000 0 21 286
1996187N10326 1996 48 NA NA BERTHA 1996-07-06 21:00:00 TS 14.5342 -51.9802 main 992 992 P_____________ AL021996 14.5342 -51.9802 TS 47 999 0 20 291
1996187N10326 1996 48 NA NA BERTHA 1996-07-07 00:00:00 TS 14.9000 -52.9000 50 999 hurdat_atl main 996 928 O_____________ hurdat_atl AL021996 14.9000 -52.9000 TS 50 999 0 19 292
1996187N10326 1996 48 NA NA BERTHA 1996-07-07 03:00:00 TS 15.2419 -53.8355 main 928 875 P_____________ AL021996 15.2419 -53.8355 TS 52 998 0 20 291
1996187N10326 1996 48 NA NA BERTHA 1996-07-07 06:00:00 TS 15.6000 -54.8000 55 997 hurdat_atl main 867 817 O_____________ hurdat_atl AL021996 15.6000 -54.8000 TS 55 997 0 21 292
1996187N10326 1996 48 NA NA BERTHA 1996-07-07 09:00:00 TS 16.0453 -55.8792 main 810 780 P_____________ AL021996 16.0453 -55.8792 TS 57 996 0 22 292
1996187N10326 1996 48 NA NA BERTHA 1996-07-07 12:00:00 TS 16.4000 -56.9000 60 995 hurdat_atl main 777 746 O_____________ hurdat_atl AL021996 16.4000 -56.9000 TS 60 995 0 18 284
1996187N10326 1996 48 NA NA BERTHA 1996-07-07 15:00:00 TS 16.4715 -57.6812 main 740 707 P_____________ AL021996 16.4715 -57.6812 TS 65 993 1 14 274
1996187N10326 1996 48 NA NA BERTHA 1996-07-07 18:00:00 TS 16.5000 -58.4000 70 992 hurdat_atl main 707 695 O_____________ hurdat_atl AL021996 16.5000 -58.4000 HU 70 992 1 15 279
1996187N10326 1996 48 NA NA BERTHA 1996-07-07 21:00:00 TS 16.7198 -59.2348 main 699 598 P_____________ AL021996 16.7198 -59.2348 HU 72 990 1 17 287
1996187N10326 1996 48 NA NA BERTHA 1996-07-08 00:00:00 TS 17.0000 -60.1000 75 988 hurdat_atl main 598 510 O_____________ hurdat_atl AL021996 17.0000 -60.1000 HU 75 988 1 17 288
1996187N10326 1996 48 NA CS BERTHA 1996-07-08 03:00:00 TS 17.2496 -60.9502 main 500 409 P_____________ AL021996 17.2496 -60.9502 HU 75 986 1 17 287
1996187N10326 1996 48 NA CS BERTHA 1996-07-08 06:00:00 TS 17.5000 -61.8000 75 985 hurdat_atl main 409 322 O_____________ hurdat_atl AL021996 17.5000 -61.8000 HU 75 985 1 17 287
1996187N10326 1996 48 NA CS BERTHA 1996-07-08 09:00:00 TS 17.7424 -62.6727 main 311 223 P_____________ AL021996 17.7424 -62.6727 HU 72 984 1 17 287
1996187N10326 1996 48 NA CS BERTHA 1996-07-08 12:00:00 TS 18.0000 -63.5000 70 983 hurdat_atl main 223 147 O_____________ hurdat_atl AL021996 18.0000 -63.5000 HU 70 983 1 16 290
1996187N10326 1996 48 NA CS BERTHA 1996-07-08 15:00:00 TS 18.2771 -64.2378 main 147 77 P_____________ AL021996 18.2771 -64.2378 HU 72 980 1 15 294
1996187N10326 1996 48 NA CS BERTHA 1996-07-08 18:00:00 TS 18.6000 -64.9000 75 978 hurdat_atl main 77 54 O_____________ hurdat_atl AL021996 18.6000 -64.9000 HU 75 978 1 14 301
1996187N10326 1996 48 NA NA BERTHA 1996-07-08 21:00:00 TS 18.9768 -65.4856 main 67 67 P_____________ AL021996 18.9768 -65.4856 HU 77 974 1 14 305
1996187N10326 1996 48 NA NA BERTHA 1996-07-09 00:00:00 TS 19.4000 -66.1000 80 970 hurdat_atl main 111 111 O_____________ hurdat_atl AL021996 19.4000 -66.1000 HU 80 970 1 16 303
1996187N10326 1996 48 NA NA BERTHA 1996-07-09 03:00:00 TS 19.8274 -66.8630 main 156 156 P_____________ AL021996 19.8274 -66.8630 HU 90 965 2 18 301
1996187N10326 1996 48 NA NA BERTHA 1996-07-09 06:00:00 TS 20.3000 -67.7000 100 960 hurdat_atl main 192 182 O_____________ hurdat_atl AL021996 20.3000 -67.7000 HU 100 960 3 19 303
1996187N10326 1996 48 NA NA BERTHA 1996-07-09 09:00:00 TS 20.8347 -68.5428 main 187 187 P_____________ AL021996 20.8347 -68.5428 HU 100 962 3 19 305
1996187N10326 1996 48 NA NA BERTHA 1996-07-09 12:00:00 TS 21.4000 -69.4000 100 965 hurdat_atl main 210 210 O_____________ hurdat_atl AL021996 21.4000 -69.4000 HU 100 965 3 20 305
1996187N10326 1996 48 NA NA BERTHA 1996-07-09 15:00:00 TS 21.9498 -70.2655 main 236 236 P_____________ AL021996 21.9498 -70.2655 HU 95 966 2 19 305
1996187N10326 1996 48 NA NA BERTHA 1996-07-09 18:00:00 TS 22.5000 -71.1000 90 967 hurdat_atl main 244 229 O_____________ hurdat_atl AL021996 22.5000 -71.1000 HU 90 967 2 19 307
1996187N10326 1996 48 NA NA BERTHA 1996-07-09 21:00:00 TS 23.0645 -71.8729 main 240 236 P_____________ AL021996 23.0645 -71.8729 HU 87 968 2 18 309
1996187N10326 1996 48 NA NA BERTHA 1996-07-10 00:00:00 TS 23.6000 -72.6000 85 969 hurdat_atl main 271 271 O_____________ hurdat_atl AL021996 23.6000 -72.6000 HU 85 969 2 17 307
1996187N10326 1996 48 NA NA BERTHA 1996-07-10 03:00:00 TS 24.0647 -73.3157 main 324 324 P_____________ AL021996 24.0647 -73.3157 HU 82 970 1 16 305
1996187N10326 1996 48 NA NA BERTHA 1996-07-10 06:00:00 TS 24.5000 -74.0000 80 971 hurdat_atl main 374 306 O_____________ hurdat_atl AL021996 24.5000 -74.0000 HU 80 971 1 16 305
1996187N10326 1996 48 NA NA BERTHA 1996-07-10 09:00:00 TS 24.9427 -74.7174 main 306 261 P_____________ AL021996 24.9427 -74.7174 HU 80 969 1 15 307
1996187N10326 1996 48 NA NA BERTHA 1996-07-10 12:00:00 TS 25.4000 -75.3000 80 968 hurdat_atl main 261 251 O_____________ hurdat_atl AL021996 25.4000 -75.3000 HU 80 968 1 12 320
1996187N10326 1996 48 NA NA BERTHA 1996-07-10 15:00:00 TS 25.8844 -75.6035 main 256 251 P_____________ AL021996 25.8844 -75.6035 HU 80 967 1 11 336
1996187N10326 1996 48 NA NA BERTHA 1996-07-10 18:00:00 TS 26.4000 -75.8000 80 966 hurdat_atl main 263 261 O_____________ hurdat_atl AL021996 26.4000 -75.8000 HU 80 966 1 12 337
1996187N10326 1996 48 NA NA BERTHA 1996-07-10 21:00:00 TS 26.9651 -76.1073 main 284 284 P_____________ AL021996 26.9651 -76.1073 HU 77 967 1 12 334
1996187N10326 1996 48 NA NA BERTHA 1996-07-11 00:00:00 TS 27.5000 -76.4000 75 968 hurdat_atl main 311 311 O_____________ hurdat_atl AL021996 27.5000 -76.4000 HU 75 968 1 10 336
1996187N10326 1996 48 NA NA BERTHA 1996-07-11 03:00:00 TS 27.9148 -76.5933 main 342 342 P_____________ AL021996 27.9148 -76.5933 HU 75 970 1 9 336
1996187N10326 1996 48 NA NA BERTHA 1996-07-11 06:00:00 TS 28.3000 -76.8000 75 972 hurdat_atl main 355 331 O_____________ hurdat_atl AL021996 28.3000 -76.8000 HU 75 972 1 10 330
1996187N10326 1996 48 NA NA BERTHA 1996-07-11 09:00:00 TS 28.7502 -77.1422 main 333 302 P_____________ AL021996 28.7502 -77.1422 HU 75 974 1 11 326
1996187N10326 1996 48 NA NA BERTHA 1996-07-11 12:00:00 TS 29.2000 -77.5000 75 977 hurdat_atl main 302 289 O_____________ hurdat_atl AL021996 29.2000 -77.5000 HU 75 977 1 10 327
1996187N10326 1996 48 NA NA BERTHA 1996-07-11 15:00:00 TS 29.6149 -77.7802 main 289 285 P_____________ AL021996 29.6149 -77.7802 HU 72 978 1 9 331
1996187N10326 1996 48 NA NA BERTHA 1996-07-11 18:00:00 TS 30.0000 -78.0000 70 980 hurdat_atl main 294 292 O_____________ hurdat_atl AL021996 30.0000 -78.0000 HU 70 980 1 8 336
1996187N10326 1996 48 NA NA BERTHA 1996-07-11 21:00:00 TS 30.3724 -78.1652 main 297 265 P_____________ AL021996 30.3724 -78.1652 HU 70 981 1 7 340
1996187N10326 1996 48 NA NA BERTHA 1996-07-12 00:00:00 TS 30.7000 -78.3000 70 982 hurdat_atl main 265 236 O_____________ hurdat_atl AL021996 30.7000 -78.3000 HU 70 982 1 6 333
1996187N10326 1996 48 NA NA BERTHA 1996-07-12 03:00:00 TS 30.9275 -78.4873 main 236 204 P_____________ AL021996 30.9275 -78.4873 HU 70 983 1 6 333
1996187N10326 1996 48 NA NA BERTHA 1996-07-12 06:00:00 TS 31.2000 -78.6000 70 984 hurdat_atl main 204 172 O_____________ hurdat_atl AL021996 31.2000 -78.6000 HU 70 984 1 7 356
1996187N10326 1996 48 NA NA BERTHA 1996-07-12 09:00:00 TS 31.6325 -78.5451 main 177 129 P_____________ AL021996 31.6325 -78.5451 HU 77 979 1 10 10
1996187N10326 1996 48 NA NA BERTHA 1996-07-12 12:00:00 TS 32.2000 -78.4000 85 975 hurdat_atl main 129 94 O_____________ hurdat_atl AL021996 32.2000 -78.4000 HU 85 975 2 12 9
1996187N10326 1996 48 NA NA BERTHA 1996-07-12 15:00:00 TS 32.7925 -78.3249 main 94 44 P_____________ AL021996 32.7925 -78.3249 HU 87 974 2 14 10
1996187N10326 1996 48 NA NA BERTHA 1996-07-12 18:00:00 TS 33.6000 -78.1000 90 974 hurdat_atl main 33 0 O_____________ hurdat_atl AL021996 33.6000 -78.1000 HU 90 974 2 19 16
1996187N10326 1996 48 NA NA BERTHA 1996-07-12 20:00:00 TS 34.3000 -77.8000 90 974 hurdat_atl main 0 0 O_____________ hurdat_atl AL021996 34.3000 -77.8000 L HU 90 974 2 20 19
1996187N10326 1996 48 NA NA BERTHA 1996-07-12 21:00:00 TS 34.5336 -77.7144 main 0 0 P_____________ AL021996 34.5336 -77.7144 HU 83 978 2 11 13
1996187N10326 1996 48 NA NA BERTHA 1996-07-13 00:00:00 TS 35.0000 -77.6000 65 993 hurdat_atl main 0 0 O_____________ hurdat_atl AL021996 35.0000 -77.6000 HU 65 993 1 13 13
1996187N10326 1996 48 NA NA BERTHA 1996-07-13 03:00:00 TS 35.7977 -77.3485 main 0 0 P_____________ AL021996 35.7977 -77.3485 HU 62 993 0 18 16
1996187N10326 1996 48 NA NA BERTHA 1996-07-13 06:00:00 TS 36.7000 -77.0000 60 993 hurdat_atl main 0 0 O_____________ hurdat_atl AL021996 36.7000 -77.0000 TS 60 993 0 18 19
1996187N10326 1996 48 NA NA BERTHA 1996-07-13 09:00:00 TS 37.4843 -76.6222 main 0 0 P_____________ AL021996 37.4843 -76.6222 TS 60 993 0 18 24
1996187N10326 1996 48 NA NA BERTHA 1996-07-13 12:00:00 TS 38.3000 -76.1000 60 994 hurdat_atl main 0 0 O_____________ hurdat_atl AL021996 38.3000 -76.1000 TS 60 994 0 20 28
1996187N10326 1996 48 NA NA BERTHA 1996-07-13 15:00:00 TS 39.2261 -75.4246 main 0 0 P_____________ AL021996 39.2261 -75.4246 TS 60 994 0 23 33
1996187N10326 1996 48 NA NA BERTHA 1996-07-13 18:00:00 TS 40.2000 -74.5000 60 994 hurdat_atl main 0 0 O_____________ hurdat_atl AL021996 40.2000 -74.5000 TS 60 994 0 25 40
1996187N10326 1996 48 NA NA BERTHA 1996-07-13 21:00:00 TS 41.1426 -73.2952 main 8 0 P_____________ AL021996 41.1426 -73.2952 TS 60 994 0 27 46
1996187N10326 1996 48 NA NA BERTHA 1996-07-14 00:00:00 TS 42.1000 -71.9000 60 994 hurdat_atl main 0 0 O_____________ hurdat_atl AL021996 42.1000 -71.9000 TS 60 994 0 29 47
1996187N10326 1996 48 NA NA BERTHA 1996-07-14 03:00:00 TS 43.0988 -70.4770 main 19 0 P_____________ AL021996 43.0988 -70.4770 TS 57 994 0 29 47
1996187N10326 1996 48 NA NA BERTHA 1996-07-14 06:00:00 TS 44.1000 -69.0000 55 995 hurdat_atl main 7 0 O_____________ hurdat_atl AL021996 44.1000 -69.0000 TS 55 995 0 29 46
1996187N10326 1996 48 NA NA BERTHA 1996-07-14 09:00:00 TS 45.1200 -67.5801 main 0 0 P_____________ AL021996 45.1200 -67.5801 TS 52 995 0 28 48
1996187N10326 1996 48 NA NA BERTHA 1996-07-14 12:00:00 ET 46.0000 -66.0000 50 995 hurdat_atl main 0 0 O_____________ hurdat_atl AL021996 46.0000 -66.0000 EX 50 995 -4 28 59
1996187N10326 1996 48 NA NA BERTHA 1996-07-14 15:00:00 ET 46.5633 -64.1397 main 0 0 P_____________ AL021996 46.5633 -64.1397 EX 50 995 -4 29 70
1996187N10326 1996 48 NA NA BERTHA 1996-07-14 18:00:00 ET 47.0000 -62.0000 50 995 hurdat_atl main 67 31 O_____________ hurdat_atl AL021996 47.0000 -62.0000 EX 50 995 -4 32 73
1996187N10326 1996 48 NA NA BERTHA 1996-07-14 21:00:00 ET 47.4993 -59.5719 main 25 0 P_____________ AL021996 47.4993 -59.5719 EX 50 995 -4 35 74
1996187N10326 1996 48 NA NA BERTHA 1996-07-15 00:00:00 ET 48.0000 -57.0000 50 995 hurdat_atl main 0 0 O_____________ hurdat_atl AL021996 48.0000 -57.0000 EX 50 995 -4 35 75
1996187N10326 1996 48 NA NA BERTHA 1996-07-15 03:00:00 ET 48.4201 -54.4838 main 0 0 P_____________ AL021996 48.4201 -54.4838 EX 47 995 -4 35 73
1996187N10326 1996 48 NA NA BERTHA 1996-07-15 06:00:00 ET 49.0000 -52.0000 45 996 hurdat_atl main 91 91 O_____________ hurdat_atl AL021996 49.0000 -52.0000 EX 45 996 -4 36 67
1996187N10326 1996 48 NA NA BERTHA 1996-07-15 09:00:00 ET 49.8532 -49.3530 main 301 301 P_____________ AL021996 49.8532 -49.3530 EX 42 996 -4 38 58
1996187N10326 1996 48 NA NA BERTHA 1996-07-15 12:00:00 ET 51.0000 -47.0000 40 996 hurdat_atl main 497 497 O_____________ hurdat_atl AL021996 51.0000 -47.0000 EX 40 996 -4 36 46
1996187N10326 1996 48 NA NA BERTHA 1996-07-15 15:00:00 ET 52.3815 -45.2338 main 673 673 P_____________ AL021996 52.3815 -45.2338 EX 40 996 -4 35 31
1996187N10326 1996 48 NA NA BERTHA 1996-07-15 18:00:00 ET 54.0000 -44.0000 40 996 hurdat_atl main 665 473 O_____________ hurdat_atl AL021996 54.0000 -44.0000 EX 40 996 -4 37 20
1996187N10326 1996 48 NA NA BERTHA 1996-07-15 21:00:00 ET 55.8972 -43.0258 main 463 300 P_____________ AL021996 55.8972 -43.0258 EX 40 993 -4 36 14
1996187N10326 1996 48 NA NA BERTHA 1996-07-16 00:00:00 ET 57.5000 -42.5000 40 991 hurdat_atl main 289 214 O_____________ hurdat_atl AL021996 57.5000 -42.5000 EX 40 991 -4 23 8
1996187N10326 1996 48 NA NA BERTHA 1996-07-16 03:00:00 ET 58.1863 -42.4107 main 214 180 P_____________ AL021996 58.1863 -42.4107 EX 40 989 -4 10 1
1996187N10326 1996 48 NA NA BERTHA 1996-07-16 06:00:00 ET 58.5000 -42.5000 40 988 hurdat_atl main 180 127 O_____________ hurdat_atl AL021996 58.5000 -42.5000 EX 40 988 -4 9 3
1996187N10326 1996 48 NA NA BERTHA 1996-07-16 09:00:00 ET 59.0523 -42.3263 main 119 90 P_____________ AL021996 59.0523 -42.3263 EX 42 988 -4 10 14
1996187N10326 1996 48 NA NA BERTHA 1996-07-16 12:00:00 ET 59.5000 -42.0000 45 988 hurdat_atl main 90 86 O_____________ hurdat_atl AL021996 59.5000 -42.0000 EX 45 988 -4 8 31
1996187N10326 1996 48 NA NA BERTHA 1996-07-16 15:00:00 ET 59.7101 -41.5364 main 99 99 P_____________ AL021996 59.7101 -41.5364 EX 45 986 -4 6 59
1996187N10326 1996 48 NA NA BERTHA 1996-07-16 18:00:00 ET 59.8000 -41.0000 45 985 hurdat_atl main 120 120 O_____________ hurdat_atl AL021996 59.8000 -41.0000 EX 45 985 -4 5 71
1996187N10326 1996 48 NA NA BERTHA 1996-07-16 21:00:00 ET 59.8848 -40.4983 main 145 145 P_____________ AL021996 59.8848 -40.4983 EX 42 989 -4 5 68
1996187N10326 1996 48 NA NA BERTHA 1996-07-17 00:00:00 ET 60.0000 -40.0000 40 993 hurdat_atl main 168 168 O_____________ hurdat_atl AL021996 60.0000 -40.0000 EX 40 993 -4 6 56
1996187N10326 1996 48 NA NA BERTHA 1996-07-17 03:00:00 ET 60.2179 -39.5026 main 188 188 P_____________ AL021996 60.2179 -39.5026 EX 37 997 -4 7 45
1996187N10326 1996 48 NA NA BERTHA 1996-07-17 06:00:00 ET 60.5000 -39.0000 35 1001 hurdat_atl main 205 O_____________ hurdat_atl AL021996 60.5000 -39.0000 EX 35 1001 -4 7 41

About IBTrACS Database

This database is a web-friendly format of International Best Track Archive for Climate Stewardship (IBTrACS), a global best track data archive curated by NOAA dating back to 1842.

Updated: 2021-10-21